sensor_id;sensor_type;location;lat;lon;timestamp;temperature;humidity
77052;SHT30;65980;44.898;8.602;2023-10-31T00:02:47;13.70;89.40
77052;SHT30;65980;44.898;8.602;2023-10-31T00:05:52;13.32;91.43
77052;SHT30;65980;44.898;8.602;2023-10-31T00:08:56;13.55;90.61
77052;SHT30;65980;44.898;8.602;2023-10-31T00:12:00;13.54;90.39
77052;SHT30;65980;44.898;8.602;2023-10-31T00:15:05;13.56;90.32
77052;SHT30;65980;44.898;8.602;2023-10-31T00:18:09;13.67;90.18
77052;SHT30;65980;44.898;8.602;2023-10-31T00:21:14;13.49;90.22
77052;SHT30;65980;44.898;8.602;2023-10-31T00:24:18;13.63;90.20
77052;SHT30;65980;44.898;8.602;2023-10-31T00:27:23;13.66;90.14
77052;SHT30;65980;44.898;8.602;2023-10-31T00:30:27;13.61;89.98
77052;SHT30;65980;44.898;8.602;2023-10-31T00:33:31;13.70;89.79
77052;SHT30;65980;44.898;8.602;2023-10-31T00:36:36;13.56;90.30
77052;SHT30;65980;44.898;8.602;2023-10-31T00:39:40;13.76;89.46
77052;SHT30;65980;44.898;8.602;2023-10-31T00:42:43;13.82;89.44
77052;SHT30;65980;44.898;8.602;2023-10-31T00:45:48;13.74;89.78
77052;SHT30;65980;44.898;8.602;2023-10-31T00:48:52;13.73;89.61
77052;SHT30;65980;44.898;8.602;2023-10-31T00:51:56;13.55;90.53
77052;SHT30;65980;44.898;8.602;2023-10-31T00:55:00;13.46;91.39
77052;SHT30;65980;44.898;8.602;2023-10-31T00:58:04;13.58;90.95
77052;SHT30;65980;44.898;8.602;2023-10-31T01:01:08;13.35;91.72
77052;SHT30;65980;44.898;8.602;2023-10-31T01:04:12;13.28;91.93
77052;SHT30;65980;44.898;8.602;2023-10-31T01:07:16;13.44;91.63
77052;SHT30;65980;44.898;8.602;2023-10-31T01:10:21;13.59;91.18
77052;SHT30;65980;44.898;8.602;2023-10-31T01:13:26;13.72;90.58
77052;SHT30;65980;44.898;8.602;2023-10-31T01:16:30;13.82;89.71
77052;SHT30;65980;44.898;8.602;2023-10-31T01:19:34;13.79;89.78
77052;SHT30;65980;44.898;8.602;2023-10-31T01:22:38;13.83;90.10
77052;SHT30;65980;44.898;8.602;2023-10-31T01:25:42;13.89;90.06
77052;SHT30;65980;44.898;8.602;2023-10-31T01:28:46;13.91;89.95
77052;SHT30;65980;44.898;8.602;2023-10-31T01:31:50;13.89;89.67
77052;SHT30;65980;44.898;8.602;2023-10-31T01:34:54;13.94;89.68
77052;SHT30;65980;44.898;8.602;2023-10-31T01:37:57;14.04;89.32
77052;SHT30;65980;44.898;8.602;2023-10-31T01:41:02;14.10;88.96
77052;SHT30;65980;44.898;8.602;2023-10-31T01:44:07;14.11;89.17
77052;SHT30;65980;44.898;8.602;2023-10-31T01:47:11;14.14;88.99
77052;SHT30;65980;44.898;8.602;2023-10-31T01:50:16;14.14;88.80
77052;SHT30;65980;44.898;8.602;2023-10-31T01:53:20;14.04;89.04
77052;SHT30;65980;44.898;8.602;2023-10-31T01:56:25;14.04;89.25
77052;SHT30;65980;44.898;8.602;2023-10-31T01:59:30;14.04;89.34
77052;SHT30;65980;44.898;8.602;2023-10-31T02:02:36;14.14;88.64
77052;SHT30;65980;44.898;8.602;2023-10-31T02:05:41;14.22;88.51
77052;SHT30;65980;44.898;8.602;2023-10-31T02:08:47;14.10;88.79
77052;SHT30;65980;44.898;8.602;2023-10-31T02:11:51;13.96;89.39
77052;SHT30;65980;44.898;8.602;2023-10-31T02:14:55;14.06;89.15
77052;SHT30;65980;44.898;8.602;2023-10-31T02:17:59;14.07;89.14
77052;SHT30;65980;44.898;8.602;2023-10-31T02:21:04;14.14;88.92
77052;SHT30;65980;44.898;8.602;2023-10-31T02:24:09;14.18;88.97
77052;SHT30;65980;44.898;8.602;2023-10-31T02:27:13;14.21;88.87
77052;SHT30;65980;44.898;8.602;2023-10-31T02:30:41;14.03;89.27
77052;SHT30;65980;44.898;8.602;2023-10-31T02:33:47;14.01;89.30
77052;SHT30;65980;44.898;8.602;2023-10-31T02:36:51;14.04;89.29
77052;SHT30;65980;44.898;8.602;2023-10-31T02:39:55;14.14;88.93
77052;SHT30;65980;44.898;8.602;2023-10-31T02:42:59;14.09;89.11
77052;SHT30;65980;44.898;8.602;2023-10-31T02:46:03;14.04;89.18
77052;SHT30;65980;44.898;8.602;2023-10-31T02:49:08;13.99;89.12
77052;SHT30;65980;44.898;8.602;2023-10-31T02:52:14;13.97;89.21
77052;SHT30;65980;44.898;8.602;2023-10-31T02:55:18;13.90;89.79
77052;SHT30;65980;44.898;8.602;2023-10-31T02:58:22;13.90;90.04
77052;SHT30;65980;44.898;8.602;2023-10-31T03:01:30;13.82;90.48
77052;SHT30;65980;44.898;8.602;2023-10-31T03:04:35;13.69;90.94
77052;SHT30;65980;44.898;8.602;2023-10-31T03:07:40;13.63;91.56
77052;SHT30;65980;44.898;8.602;2023-10-31T03:10:44;13.74;91.29
77052;SHT30;65980;44.898;8.602;2023-10-31T03:13:49;13.86;91.09
77052;SHT30;65980;44.898;8.602;2023-10-31T03:16:54;13.84;91.14
77052;SHT30;65980;44.898;8.602;2023-10-31T03:19:58;13.96;90.65
77052;SHT30;65980;44.898;8.602;2023-10-31T03:23:04;13.96;90.49
77052;SHT30;65980;44.898;8.602;2023-10-31T03:26:08;13.84;90.97
77052;SHT30;65980;44.898;8.602;2023-10-31T03:29:12;13.89;90.83
77052;SHT30;65980;44.898;8.602;2023-10-31T03:32:17;13.87;90.83
77052;SHT30;65980;44.898;8.602;2023-10-31T03:35:21;13.93;90.98
77052;SHT30;65980;44.898;8.602;2023-10-31T03:38:25;13.97;90.89
77052;SHT30;65980;44.898;8.602;2023-10-31T03:41:29;14.00;90.92
77052;SHT30;65980;44.898;8.602;2023-10-31T03:44:32;14.00;90.67
77052;SHT30;65980;44.898;8.602;2023-10-31T03:47:37;13.69;91.66
77052;SHT30;65980;44.898;8.602;2023-10-31T03:50:41;13.55;92.32
77052;SHT30;65980;44.898;8.602;2023-10-31T03:53:46;13.65;92.06
77052;SHT30;65980;44.898;8.602;2023-10-31T03:56:52;13.59;91.99
77052;SHT30;65980;44.898;8.602;2023-10-31T03:59:56;13.58;92.37
77052;SHT30;65980;44.898;8.602;2023-10-31T04:03:00;13.45;92.81
77052;SHT30;65980;44.898;8.602;2023-10-31T04:06:05;13.41;92.97
77052;SHT30;65980;44.898;8.602;2023-10-31T04:09:09;13.41;92.66
77052;SHT30;65980;44.898;8.602;2023-10-31T04:12:14;13.34;93.08
77052;SHT30;65980;44.898;8.602;2023-10-31T04:15:18;13.38;93.06
77052;SHT30;65980;44.898;8.602;2023-10-31T04:18:22;13.32;93.18
77052;SHT30;65980;44.898;8.602;2023-10-31T04:21:26;13.29;93.26
77052;SHT30;65980;44.898;8.602;2023-10-31T04:24:31;13.41;93.30
77052;SHT30;65980;44.898;8.602;2023-10-31T04:27:36;13.39;92.68
77052;SHT30;65980;44.898;8.602;2023-10-31T04:30:40;13.49;92.57
77052;SHT30;65980;44.898;8.602;2023-10-31T04:33:44;13.46;92.60
77052;SHT30;65980;44.898;8.602;2023-10-31T04:36:48;13.31;93.16
77052;SHT30;65980;44.898;8.602;2023-10-31T04:39:53;13.42;93.09
77052;SHT30;65980;44.898;8.602;2023-10-31T04:42:58;13.51;92.92
77052;SHT30;65980;44.898;8.602;2023-10-31T04:46:01;13.66;92.62
77052;SHT30;65980;44.898;8.602;2023-10-31T04:49:06;13.59;92.14
77052;SHT30;65980;44.898;8.602;2023-10-31T04:52:10;13.67;91.85
77052;SHT30;65980;44.898;8.602;2023-10-31T04:55:14;13.70;91.65
77052;SHT30;65980;44.898;8.602;2023-10-31T04:58:18;13.66;91.32
77052;SHT30;65980;44.898;8.602;2023-10-31T05:01:22;13.73;90.89
77052;SHT30;65980;44.898;8.602;2023-10-31T05:04:25;13.79;90.51
77052;SHT30;65980;44.898;8.602;2023-10-31T05:07:30;13.79;89.91
77052;SHT30;65980;44.898;8.602;2023-10-31T05:10:36;13.56;89.59
77052;SHT30;65980;44.898;8.602;2023-10-31T05:13:40;13.62;89.68
77052;SHT30;65980;44.898;8.602;2023-10-31T05:16:43;13.27;90.02
77052;SHT30;65980;44.898;8.602;2023-10-31T05:19:48;13.24;89.78
77052;SHT30;65980;44.898;8.602;2023-10-31T05:22:52;13.28;89.54
77052;SHT30;65980;44.898;8.602;2023-10-31T05:25:57;13.17;89.06
77052;SHT30;65980;44.898;8.602;2023-10-31T05:29:02;13.34;88.41
77052;SHT30;65980;44.898;8.602;2023-10-31T05:32:06;13.31;88.43
77052;SHT30;65980;44.898;8.602;2023-10-31T05:35:10;13.18;88.04
77052;SHT30;65980;44.898;8.602;2023-10-31T05:38:15;13.29;87.16
77052;SHT30;65980;44.898;8.602;2023-10-31T05:41:19;13.39;85.97
77052;SHT30;65980;44.898;8.602;2023-10-31T05:44:24;13.29;86.63
77052;SHT30;65980;44.898;8.602;2023-10-31T05:47:28;13.45;86.00
77052;SHT30;65980;44.898;8.602;2023-10-31T05:50:31;13.52;85.27
77052;SHT30;65980;44.898;8.602;2023-10-31T05:53:37;13.49;85.46
77052;SHT30;65980;44.898;8.602;2023-10-31T05:56:41;13.45;85.50
77052;SHT30;65980;44.898;8.602;2023-10-31T05:59:47;13.59;85.16
77052;SHT30;65980;44.898;8.602;2023-10-31T06:02:52;13.69;83.12
77052;SHT30;65980;44.898;8.602;2023-10-31T06:05:55;13.70;82.68
77052;SHT30;65980;44.898;8.602;2023-10-31T06:09:00;13.72;83.94
77052;SHT30;65980;44.898;8.602;2023-10-31T06:12:04;13.66;82.31
77052;SHT30;65980;44.898;8.602;2023-10-31T06:15:10;13.59;82.94
77052;SHT30;65980;44.898;8.602;2023-10-31T06:18:13;13.44;84.44
77052;SHT30;65980;44.898;8.602;2023-10-31T06:21:18;13.41;83.77
77052;SHT30;65980;44.898;8.602;2023-10-31T06:24:23;13.22;83.00
77052;SHT30;65980;44.898;8.602;2023-10-31T06:27:26;13.37;83.81
77052;SHT30;65980;44.898;8.602;2023-10-31T06:30:34;13.49;82.95
77052;SHT30;65980;44.898;8.602;2023-10-31T06:33:37;13.58;80.35
77052;SHT30;65980;44.898;8.602;2023-10-31T06:36:42;13.65;80.24
77052;SHT30;65980;44.898;8.602;2023-10-31T06:39:46;13.74;81.78
77052;SHT30;65980;44.898;8.602;2023-10-31T06:42:51;13.52;82.61
77052;SHT30;65980;44.898;8.602;2023-10-31T06:45:57;13.45;84.35
77052;SHT30;65980;44.898;8.602;2023-10-31T06:57:53;13.34;84.17
77052;SHT30;65980;44.898;8.602;2023-10-31T07:00:57;13.35;84.00
77052;SHT30;65980;44.898;8.602;2023-10-31T07:04:04;13.52;83.23
77052;SHT30;65980;44.898;8.602;2023-10-31T07:07:09;13.58;81.98
77052;SHT30;65980;44.898;8.602;2023-10-31T07:13:41;13.83;82.22
77052;SHT30;65980;44.898;8.602;2023-10-31T07:16:46;13.79;82.81
77052;SHT30;65980;44.898;8.602;2023-10-31T07:19:52;14.13;82.13
77052;SHT30;65980;44.898;8.602;2023-10-31T07:22:56;14.48;80.32
77052;SHT30;65980;44.898;8.602;2023-10-31T07:26:01;14.58;80.09
77052;SHT30;65980;44.898;8.602;2023-10-31T07:29:06;14.63;79.31
77052;SHT30;65980;44.898;8.602;2023-10-31T07:32:09;15.18;77.69
77052;SHT30;65980;44.898;8.602;2023-10-31T07:35:14;16.13;74.96
77052;SHT30;65980;44.898;8.602;2023-10-31T07:38:20;16.55;73.84
77052;SHT30;65980;44.898;8.602;2023-10-31T07:41:28;17.36;70.43
77052;SHT30;65980;44.898;8.602;2023-10-31T07:44:32;17.76;69.43
77052;SHT30;65980;44.898;8.602;2023-10-31T07:47:37;17.93;68.51
77052;SHT30;65980;44.898;8.602;2023-10-31T07:50:55;17.61;69.58
77052;SHT30;65980;44.898;8.602;2023-10-31T07:53:59;17.17;70.42
77052;SHT30;65980;44.898;8.602;2023-10-31T07:57:04;16.91;70.13
77052;SHT30;65980;44.898;8.602;2023-10-31T08:00:10;17.55;68.49
77052;SHT30;65980;44.898;8.602;2023-10-31T08:03:17;17.53;68.46
77052;SHT30;65980;44.898;8.602;2023-10-31T08:06:22;18.04;66.65
77052;SHT30;65980;44.898;8.602;2023-10-31T08:09:26;19.24;62.35
77052;SHT30;65980;44.898;8.602;2023-10-31T08:12:33;19.75;61.03
77052;SHT30;65980;44.898;8.602;2023-10-31T08:15:38;18.96;62.38
77052;SHT30;65980;44.898;8.602;2023-10-31T08:18:45;18.68;62.49
77052;SHT30;65980;44.898;8.602;2023-10-31T08:21:49;19.11;61.18
77052;SHT30;65980;44.898;8.602;2023-10-31T08:24:54;18.75;61.45
77052;SHT30;65980;44.898;8.602;2023-10-31T08:27:59;18.11;65.04
77052;SHT30;65980;44.898;8.602;2023-10-31T08:31:12;18.25;62.34
77052;SHT30;65980;44.898;8.602;2023-10-31T08:34:17;18.49;61.45
77052;SHT30;65980;44.898;8.602;2023-10-31T08:37:47;19.13;60.86
77052;SHT30;65980;44.898;8.602;2023-10-31T08:40:56;21.59;54.19
77052;SHT30;65980;44.898;8.602;2023-10-31T08:44:10;22.98;50.14
77052;SHT30;65980;44.898;8.602;2023-10-31T08:47:34;21.88;52.26
77052;SHT30;65980;44.898;8.602;2023-10-31T08:50:39;20.61;52.41
77052;SHT30;65980;44.898;8.602;2023-10-31T08:53:50;21.65;52.16
77052;SHT30;65980;44.898;8.602;2023-10-31T08:56:54;22.69;50.24
77052;SHT30;65980;44.898;8.602;2023-10-31T08:59:59;22.52;50.20
77052;SHT30;65980;44.898;8.602;2023-10-31T09:03:04;22.10;51.81
77052;SHT30;65980;44.898;8.602;2023-10-31T09:06:08;21.15;52.34
77052;SHT30;65980;44.898;8.602;2023-10-31T09:09:12;20.42;53.83
77052;SHT30;65980;44.898;8.602;2023-10-31T09:12:25;20.53;53.97
77052;SHT30;65980;44.898;8.602;2023-10-31T09:15:30;20.41;53.90
77052;SHT30;65980;44.898;8.602;2023-10-31T09:18:35;19.90;55.19
77052;SHT30;65980;44.898;8.602;2023-10-31T09:21:40;19.23;56.35
77052;SHT30;65980;44.898;8.602;2023-10-31T09:24:45;19.10;56.34
77052;SHT30;65980;44.898;8.602;2023-10-31T09:27:52;19.15;56.60
77052;SHT30;65980;44.898;8.602;2023-10-31T09:31:05;19.10;56.37
77052;SHT30;65980;44.898;8.602;2023-10-31T09:34:13;19.04;58.18
77052;SHT30;65980;44.898;8.602;2023-10-31T09:37:17;19.24;57.79
77052;SHT30;65980;44.898;8.602;2023-10-31T09:40:23;19.25;54.82
77052;SHT30;65980;44.898;8.602;2023-10-31T09:43:27;19.18;54.93
77052;SHT30;65980;44.898;8.602;2023-10-31T09:46:31;19.27;54.73
77052;SHT30;65980;44.898;8.602;2023-10-31T09:49:35;18.96;54.65
77052;SHT30;65980;44.898;8.602;2023-10-31T09:52:40;19.42;55.58
77052;SHT30;65980;44.898;8.602;2023-10-31T09:56:10;19.11;52.75
77052;SHT30;65980;44.898;8.602;2023-10-31T09:59:15;19.06;53.93
77052;SHT30;65980;44.898;8.602;2023-10-31T10:02:21;19.13;52.79
77052;SHT30;65980;44.898;8.602;2023-10-31T10:05:26;19.34;50.84
77052;SHT30;65980;44.898;8.602;2023-10-31T10:08:31;19.35;50.61
77052;SHT30;65980;44.898;8.602;2023-10-31T10:11:36;18.99;49.85
77052;SHT30;65980;44.898;8.602;2023-10-31T10:14:40;19.72;49.51
77052;SHT30;65980;44.898;8.602;2023-10-31T10:17:51;19.68;48.26
77052;SHT30;65980;44.898;8.602;2023-10-31T10:21:03;19.75;49.67
77052;SHT30;65980;44.898;8.602;2023-10-31T10:24:08;20.34;47.95
77052;SHT30;65980;44.898;8.602;2023-10-31T10:27:13;20.42;47.35
77052;SHT30;65980;44.898;8.602;2023-10-31T10:30:18;19.94;48.12
77052;SHT30;65980;44.898;8.602;2023-10-31T10:33:22;20.27;47.22
77052;SHT30;65980;44.898;8.602;2023-10-31T10:36:33;20.20;47.52
77052;SHT30;65980;44.898;8.602;2023-10-31T10:39:49;20.44;46.74
77052;SHT30;65980;44.898;8.602;2023-10-31T10:43:26;19.63;48.74
77052;SHT30;65980;44.898;8.602;2023-10-31T10:46:35;20.40;48.36
77052;SHT30;65980;44.898;8.602;2023-10-31T10:49:44;20.85;48.13
77052;SHT30;65980;44.898;8.602;2023-10-31T10:56:38;20.75;47.44
77052;SHT30;65980;44.898;8.602;2023-10-31T10:59:58;21.19;47.00
77052;SHT30;65980;44.898;8.602;2023-10-31T11:03:11;21.26;46.96
77052;SHT30;65980;44.898;8.602;2023-10-31T11:06:15;21.57;44.96
77052;SHT30;65980;44.898;8.602;2023-10-31T11:09:20;22.89;42.13
77052;SHT30;65980;44.898;8.602;2023-10-31T11:12:26;22.85;42.93
77052;SHT30;65980;44.898;8.602;2023-10-31T11:15:32;22.59;42.56
77052;SHT30;65980;44.898;8.602;2023-10-31T11:18:37;22.54;43.75
77052;SHT30;65980;44.898;8.602;2023-10-31T11:21:58;22.59;43.01
77052;SHT30;65980;44.898;8.602;2023-10-31T11:25:23;22.47;42.88
77052;SHT30;65980;44.898;8.602;2023-10-31T11:28:32;22.77;42.09
77052;SHT30;65980;44.898;8.602;2023-10-31T11:31:37;23.51;40.46
77052;SHT30;65980;44.898;8.602;2023-10-31T11:34:42;24.06;38.47
77052;SHT30;65980;44.898;8.602;2023-10-31T11:37:48;24.45;36.86
77052;SHT30;65980;44.898;8.602;2023-10-31T11:41:01;24.24;39.16
77052;SHT30;65980;44.898;8.602;2023-10-31T11:44:09;25.78;35.31
77052;SHT30;65980;44.898;8.602;2023-10-31T11:47:17;25.05;35.97
77052;SHT30;65980;44.898;8.602;2023-10-31T11:50:22;25.13;36.83
77052;SHT30;65980;44.898;8.602;2023-10-31T11:53:29;25.05;37.34
77052;SHT30;65980;44.898;8.602;2023-10-31T11:56:35;23.93;38.50
77052;SHT30;65980;44.898;8.602;2023-10-31T11:59:48;23.17;39.29
77052;SHT30;65980;44.898;8.602;2023-10-31T12:03:12;23.36;40.51
77052;SHT30;65980;44.898;8.602;2023-10-31T12:06:26;23.26;41.90
77052;SHT30;65980;44.898;8.602;2023-10-31T12:09:30;23.10;40.23
77052;SHT30;65980;44.898;8.602;2023-10-31T12:12:38;23.16;39.90
77052;SHT30;65980;44.898;8.602;2023-10-31T12:16:10;23.40;39.25
77052;SHT30;65980;44.898;8.602;2023-10-31T12:24:34;22.62;41.13
77052;SHT30;65980;44.898;8.602;2023-10-31T12:32:17;21.94;44.51
77052;SHT30;65980;44.898;8.602;2023-10-31T12:36:01;22.51;44.65
77052;SHT30;65980;44.898;8.602;2023-10-31T12:39:08;22.65;42.28
77052;SHT30;65980;44.898;8.602;2023-10-31T12:42:13;22.76;43.02
77052;SHT30;65980;44.898;8.602;2023-10-31T12:45:18;22.65;44.56
77052;SHT30;65980;44.898;8.602;2023-10-31T12:48:48;21.89;43.94
77052;SHT30;65980;44.898;8.602;2023-10-31T12:52:50;22.12;44.22
77052;SHT30;65980;44.898;8.602;2023-10-31T12:59:55;23.11;42.45
77052;SHT30;65980;44.898;8.602;2023-10-31T13:03:26;23.09;40.85
77052;SHT30;65980;44.898;8.602;2023-10-31T13:06:33;23.19;42.32
77052;SHT30;65980;44.898;8.602;2023-10-31T13:10:00;23.31;43.84
77052;SHT30;65980;44.898;8.602;2023-10-31T13:13:11;23.23;40.84
77052;SHT30;65980;44.898;8.602;2023-10-31T13:16:17;23.41;42.54
77052;SHT30;65980;44.898;8.602;2023-10-31T13:19:24;23.10;41.11
77052;SHT30;65980;44.898;8.602;2023-10-31T13:22:38;23.19;41.76
77052;SHT30;65980;44.898;8.602;2023-10-31T13:25:42;23.34;41.65
77052;SHT30;65980;44.898;8.602;2023-10-31T13:28:47;23.14;43.11
77052;SHT30;65980;44.898;8.602;2023-10-31T13:31:54;23.16;42.96
77052;SHT30;65980;44.898;8.602;2023-10-31T13:35:07;23.55;43.33
77052;SHT30;65980;44.898;8.602;2023-10-31T13:38:22;23.82;43.41
77052;SHT30;65980;44.898;8.602;2023-10-31T13:42:07;23.69;44.22
77052;SHT30;65980;44.898;8.602;2023-10-31T13:45:44;23.69;45.02
77052;SHT30;65980;44.898;8.602;2023-10-31T13:48:54;23.61;45.76
77052;SHT30;65980;44.898;8.602;2023-10-31T13:56:06;22.93;47.22
77052;SHT30;65980;44.898;8.602;2023-10-31T13:59:11;22.62;48.00
77052;SHT30;65980;44.898;8.602;2023-10-31T14:02:18;22.43;49.06
77052;SHT30;65980;44.898;8.602;2023-10-31T14:05:26;22.30;49.92
77052;SHT30;65980;44.898;8.602;2023-10-31T14:08:30;21.88;51.84
77052;SHT30;65980;44.898;8.602;2023-10-31T14:11:37;22.04;48.96
77052;SHT30;65980;44.898;8.602;2023-10-31T14:14:42;21.89;49.66
77052;SHT30;65980;44.898;8.602;2023-10-31T14:18:29;21.74;51.23
77052;SHT30;65980;44.898;8.602;2023-10-31T14:21:37;21.88;50.50
77052;SHT30;65980;44.898;8.602;2023-10-31T14:24:48;21.86;49.73
77052;SHT30;65980;44.898;8.602;2023-10-31T14:27:52;21.90;48.98
77052;SHT30;65980;44.898;8.602;2023-10-31T14:30:58;21.71;50.23
77052;SHT30;65980;44.898;8.602;2023-10-31T14:34:12;21.81;50.15
77052;SHT30;65980;44.898;8.602;2023-10-31T14:37:23;21.63;51.38
77052;SHT30;65980;44.898;8.602;2023-10-31T14:40:28;21.57;50.78
77052;SHT30;65980;44.898;8.602;2023-10-31T14:43:34;21.83;50.59
77052;SHT30;65980;44.898;8.602;2023-10-31T14:46:38;21.89;50.90
77052;SHT30;65980;44.898;8.602;2023-10-31T14:49:44;21.86;50.85
77052;SHT30;65980;44.898;8.602;2023-10-31T14:52:49;21.76;51.43
77052;SHT30;65980;44.898;8.602;2023-10-31T14:55:55;21.66;52.25
77052;SHT30;65980;44.898;8.602;2023-10-31T14:59:01;21.59;52.97
77052;SHT30;65980;44.898;8.602;2023-10-31T15:02:08;21.44;53.68
77052;SHT30;65980;44.898;8.602;2023-10-31T15:05:13;21.41;53.57
77052;SHT30;65980;44.898;8.602;2023-10-31T15:08:18;21.42;54.04
77052;SHT30;65980;44.898;8.602;2023-10-31T15:11:22;21.21;54.04
77052;SHT30;65980;44.898;8.602;2023-10-31T15:14:27;21.10;54.44
77052;SHT30;65980;44.898;8.602;2023-10-31T15:17:32;21.03;54.52
77052;SHT30;65980;44.898;8.602;2023-10-31T15:20:37;20.89;54.55
77052;SHT30;65980;44.898;8.602;2023-10-31T15:23:41;20.71;55.63
77052;SHT30;65980;44.898;8.602;2023-10-31T15:26:46;20.75;55.16
77052;SHT30;65980;44.898;8.602;2023-10-31T15:29:50;20.58;56.06
77052;SHT30;65980;44.898;8.602;2023-10-31T15:32:55;20.52;55.77
77052;SHT30;65980;44.898;8.602;2023-10-31T15:36:00;20.45;56.19
77052;SHT30;65980;44.898;8.602;2023-10-31T15:39:05;20.42;56.43
77052;SHT30;65980;44.898;8.602;2023-10-31T15:42:10;20.35;56.75
77052;SHT30;65980;44.898;8.602;2023-10-31T15:45:15;20.09;57.63
77052;SHT30;65980;44.898;8.602;2023-10-31T15:48:19;19.92;58.79
77052;SHT30;65980;44.898;8.602;2023-10-31T15:51:27;19.87;58.94
77052;SHT30;65980;44.898;8.602;2023-10-31T15:54:32;19.87;58.30
77052;SHT30;65980;44.898;8.602;2023-10-31T15:57:37;19.70;59.03
77052;SHT30;65980;44.898;8.602;2023-10-31T16:00:42;19.63;59.10
77052;SHT30;65980;44.898;8.602;2023-10-31T16:03:47;19.68;58.58
77052;SHT30;65980;44.898;8.602;2023-10-31T16:06:51;19.66;58.95
77052;SHT30;65980;44.898;8.602;2023-10-31T16:09:55;19.58;59.36
77052;SHT30;65980;44.898;8.602;2023-10-31T16:12:59;19.55;59.38
77052;SHT30;65980;44.898;8.602;2023-10-31T16:16:03;19.45;59.34
77052;SHT30;65980;44.898;8.602;2023-10-31T16:19:08;19.35;59.75
77052;SHT30;65980;44.898;8.602;2023-10-31T16:22:12;19.04;60.54
77052;SHT30;65980;44.898;8.602;2023-10-31T16:25:20;19.00;60.50
77052;SHT30;65980;44.898;8.602;2023-10-31T16:28:24;18.96;60.65
77052;SHT30;65980;44.898;8.602;2023-10-31T16:31:29;18.90;60.83
77052;SHT30;65980;44.898;8.602;2023-10-31T16:34:34;18.77;61.29
77052;SHT30;65980;44.898;8.602;2023-10-31T16:37:38;18.70;61.13
77052;SHT30;65980;44.898;8.602;2023-10-31T16:40:43;18.59;62.79
77052;SHT30;65980;44.898;8.602;2023-10-31T16:43:48;18.33;62.98
77052;SHT30;65980;44.898;8.602;2023-10-31T16:46:53;18.35;62.52
77052;SHT30;65980;44.898;8.602;2023-10-31T16:49:58;18.31;62.57
77052;SHT30;65980;44.898;8.602;2023-10-31T16:53:03;18.24;63.63
77052;SHT30;65980;44.898;8.602;2023-10-31T16:56:09;18.10;63.75
77052;SHT30;65980;44.898;8.602;2023-10-31T16:59:14;18.13;63.57
77052;SHT30;65980;44.898;8.602;2023-10-31T17:02:21;18.06;63.84
77052;SHT30;65980;44.898;8.602;2023-10-31T17:05:27;17.99;64.13
77052;SHT30;65980;44.898;8.602;2023-10-31T17:08:31;17.85;65.64
77052;SHT30;65980;44.898;8.602;2023-10-31T17:11:38;17.68;65.78
77052;SHT30;65980;44.898;8.602;2023-10-31T17:14:42;17.70;65.82
77052;SHT30;65980;44.898;8.602;2023-10-31T17:18:13;17.70;65.50
77052;SHT30;65980;44.898;8.602;2023-10-31T17:21:23;17.66;65.62
77052;SHT30;65980;44.898;8.602;2023-10-31T17:24:35;17.59;66.83
77052;SHT30;65980;44.898;8.602;2023-10-31T17:27:43;17.51;66.99
77052;SHT30;65980;44.898;8.602;2023-10-31T17:30:51;17.36;68.23
77052;SHT30;65980;44.898;8.602;2023-10-31T17:33:56;17.41;67.58
77052;SHT30;65980;44.898;8.602;2023-10-31T17:37:01;17.36;67.50
77052;SHT30;65980;44.898;8.602;2023-10-31T17:40:07;17.41;67.31
77052;SHT30;65980;44.898;8.602;2023-10-31T17:43:13;17.38;67.57
77052;SHT30;65980;44.898;8.602;2023-10-31T17:47:06;17.23;67.79
77052;SHT30;65980;44.898;8.602;2023-10-31T17:50:12;17.24;68.02
77052;SHT30;65980;44.898;8.602;2023-10-31T17:53:17;17.02;68.39
77052;SHT30;65980;44.898;8.602;2023-10-31T17:56:22;17.10;68.22
77052;SHT30;65980;44.898;8.602;2023-10-31T17:59:26;17.07;68.68
77052;SHT30;65980;44.898;8.602;2023-10-31T18:02:30;17.07;68.37
77052;SHT30;65980;44.898;8.602;2023-10-31T18:05:35;16.99;68.84
77052;SHT30;65980;44.898;8.602;2023-10-31T18:08:40;16.96;68.27
77052;SHT30;65980;44.898;8.602;2023-10-31T18:11:45;16.89;68.58
77052;SHT30;65980;44.898;8.602;2023-10-31T18:14:50;16.89;68.01
77052;SHT30;65980;44.898;8.602;2023-10-31T18:17:54;16.82;68.51
77052;SHT30;65980;44.898;8.602;2023-10-31T18:20:59;16.53;69.24
77052;SHT30;65980;44.898;8.602;2023-10-31T18:24:08;16.42;69.74
77052;SHT30;65980;44.898;8.602;2023-10-31T18:27:21;16.22;70.74
77052;SHT30;65980;44.898;8.602;2023-10-31T18:30:31;16.10;71.24
77052;SHT30;65980;44.898;8.602;2023-10-31T18:33:39;16.08;71.16
77052;SHT30;65980;44.898;8.602;2023-10-31T18:36:49;16.07;71.56
77052;SHT30;65980;44.898;8.602;2023-10-31T18:39:55;16.08;71.54
77052;SHT30;65980;44.898;8.602;2023-10-31T18:43:00;16.10;71.00
77052;SHT30;65980;44.898;8.602;2023-10-31T18:46:12;15.97;71.50
77052;SHT30;65980;44.898;8.602;2023-10-31T18:49:16;15.93;72.22
77052;SHT30;65980;44.898;8.602;2023-10-31T18:52:32;15.78;73.21
77052;SHT30;65980;44.898;8.602;2023-10-31T18:55:39;15.62;73.47
77052;SHT30;65980;44.898;8.602;2023-10-31T18:58:44;15.65;73.45
77052;SHT30;65980;44.898;8.602;2023-10-31T19:01:51;15.70;72.77
77052;SHT30;65980;44.898;8.602;2023-10-31T19:05:01;15.63;72.89
77052;SHT30;65980;44.898;8.602;2023-10-31T19:08:07;15.58;73.45
77052;SHT30;65980;44.898;8.602;2023-10-31T19:11:12;15.56;73.72
77052;SHT30;65980;44.898;8.602;2023-10-31T19:14:16;15.48;73.78
77052;SHT30;65980;44.898;8.602;2023-10-31T19:17:20;15.52;73.65
77052;SHT30;65980;44.898;8.602;2023-10-31T19:20:24;15.55;74.10
77052;SHT30;65980;44.898;8.602;2023-10-31T19:23:29;15.38;74.27
77052;SHT30;65980;44.898;8.602;2023-10-31T19:26:34;15.42;74.11
77052;SHT30;65980;44.898;8.602;2023-10-31T19:29:38;15.45;73.62
77052;SHT30;65980;44.898;8.602;2023-10-31T19:32:43;15.35;73.69
77052;SHT30;65980;44.898;8.602;2023-10-31T19:35:48;15.35;73.90
77052;SHT30;65980;44.898;8.602;2023-10-31T19:38:52;15.35;74.22
77052;SHT30;65980;44.898;8.602;2023-10-31T19:41:58;15.32;74.31
77052;SHT30;65980;44.898;8.602;2023-10-31T19:45:05;15.14;75.27
77052;SHT30;65980;44.898;8.602;2023-10-31T19:48:10;14.75;76.49
77052;SHT30;65980;44.898;8.602;2023-10-31T19:51:15;14.86;76.38
77052;SHT30;65980;44.898;8.602;2023-10-31T19:54:21;14.96;74.69
77052;SHT30;65980;44.898;8.602;2023-10-31T19:57:27;14.65;74.83
77052;SHT30;65980;44.898;8.602;2023-10-31T20:00:32;14.89;74.49
77052;SHT30;65980;44.898;8.602;2023-10-31T20:03:36;14.99;74.31
77052;SHT30;65980;44.898;8.602;2023-10-31T20:06:40;15.10;74.08
77052;SHT30;65980;44.898;8.602;2023-10-31T20:09:46;15.11;73.59
77052;SHT30;65980;44.898;8.602;2023-10-31T20:12:52;15.04;74.00
77052;SHT30;65980;44.898;8.602;2023-10-31T20:15:57;15.03;74.05